createdAt,value
2022-11-12T00:02:28.551Z,10.18
2022-11-12T00:05:13.722Z,10.55
2022-11-12T00:07:59.164Z,8.98
2022-11-12T00:10:45.835Z,8.00
2022-11-12T00:13:31.352Z,12.50
2022-11-12T00:16:16.353Z,9.82
2022-11-12T00:19:01.497Z,9.45
2022-11-12T00:21:46.675Z,9.70
2022-11-12T00:24:31.941Z,9.20
2022-11-12T00:27:16.700Z,9.40
2022-11-12T00:30:01.890Z,8.45
2022-11-12T00:32:46.844Z,8.63
2022-11-12T00:35:33.235Z,11.50
2022-11-12T00:38:18.097Z,9.68
2022-11-12T00:41:03.043Z,8.60
2022-11-12T00:43:48.218Z,8.15
2022-11-12T00:46:33.022Z,8.23
2022-11-12T00:49:18.123Z,8.32
2022-11-12T00:52:03.399Z,8.98
2022-11-12T00:54:48.415Z,9.98
2022-11-12T00:57:39.831Z,8.68
2022-11-12T01:00:25.858Z,8.82
2022-11-12T01:03:11.072Z,9.95
2022-11-12T01:06:05.886Z,11.88
2022-11-12T01:08:51.745Z,9.75
2022-11-12T01:11:37.158Z,9.93
2022-11-12T01:14:22.326Z,8.43
2022-11-12T01:17:07.537Z,8.25
2022-11-12T01:19:52.316Z,13.43
2022-11-12T01:22:37.596Z,9.68
2022-11-12T01:25:22.869Z,8.38
2022-11-12T01:28:07.957Z,10.15
2022-11-12T01:30:53.035Z,8.23
2022-11-12T01:33:38.936Z,9.57
2022-11-12T01:36:26.028Z,7.38
2022-11-12T01:39:10.942Z,9.48
2022-11-12T01:41:55.853Z,11.80
2022-11-12T01:44:44.616Z,9.75
2022-11-12T01:47:34.515Z,9.10
2022-11-12T01:50:31.310Z,10.55
2022-11-12T01:53:16.753Z,8.80
2022-11-12T01:56:03.753Z,8.43
2022-11-12T01:58:58.972Z,10.02
2022-11-12T02:01:43.852Z,9.73
2022-11-12T02:04:29.528Z,8.77
2022-11-12T02:07:16.311Z,8.25
2022-11-12T02:10:02.773Z,8.75
2022-11-12T02:13:07.678Z,9.77
2022-11-12T02:15:53.180Z,6.95
2022-11-12T02:18:38.043Z,8.90
2022-11-12T02:21:24.248Z,9.05
2022-11-12T02:24:12.190Z,7.53
2022-11-12T02:26:57.281Z,8.27
2022-11-12T02:29:46.371Z,8.57
2022-11-12T02:32:31.724Z,7.68
2022-11-12T02:35:16.822Z,10.65
2022-11-12T02:38:02.668Z,7.20
2022-11-12T02:40:47.922Z,9.05
2022-11-12T02:43:33.674Z,7.80
2022-11-12T02:46:18.949Z,7.70
2022-11-12T02:49:04.315Z,10.15
2022-11-12T02:51:49.421Z,8.95
2022-11-12T02:54:34.361Z,8.00
2022-11-12T02:57:19.226Z,8.90
2022-11-12T03:00:05.922Z,7.85
2022-11-12T03:02:59.776Z,8.57
2022-11-12T03:05:45.994Z,8.25
2022-11-12T03:08:30.798Z,7.80
2022-11-12T03:11:16.935Z,9.60
2022-11-12T03:14:02.774Z,8.40
2022-11-12T03:16:47.902Z,7.03
2022-11-12T03:19:33.035Z,7.47
2022-11-12T03:22:18.224Z,7.30
2022-11-12T03:25:03.671Z,9.18
2022-11-12T03:27:48.766Z,8.32
2022-11-12T03:30:36.298Z,8.23
2022-11-12T03:33:21.244Z,9.45
2022-11-12T03:36:06.490Z,7.18
2022-11-12T03:38:51.403Z,7.40
2022-11-12T03:41:36.659Z,8.80
2022-11-12T03:44:21.492Z,8.23
2022-11-12T03:47:06.652Z,7.57
2022-11-12T03:49:51.642Z,8.85
2022-11-12T03:52:38.222Z,9.48
2022-11-12T03:55:25.057Z,11.80
2022-11-12T03:58:09.886Z,8.65
2022-11-12T04:00:54.980Z,11.15
2022-11-12T04:03:39.867Z,8.15
2022-11-12T04:06:43.483Z,9.40
2022-11-12T04:09:28.603Z,10.82
2022-11-12T04:12:33.783Z,8.85
2022-11-12T04:15:18.977Z,8.82
2022-11-12T04:18:22.803Z,8.15
2022-11-12T04:21:27.356Z,7.97
2022-11-12T04:24:32.743Z,8.25
2022-11-12T04:27:26.186Z,7.05
2022-11-12T04:30:18.654Z,8.57
2022-11-12T04:33:03.849Z,12.15
2022-11-12T04:35:49.117Z,8.38
2022-11-12T04:38:33.997Z,8.90
2022-11-12T04:41:37.851Z,7.90
2022-11-12T04:44:42.701Z,10.35
2022-11-12T04:47:36.588Z,8.18
2022-11-12T04:50:21.439Z,7.80
2022-11-12T04:53:06.537Z,10.30
2022-11-12T04:55:56.252Z,7.97
2022-11-12T04:58:41.243Z,8.77
2022-11-12T05:01:25.991Z,11.70
2022-11-12T05:04:11.139Z,9.35
2022-11-12T05:06:57.206Z,9.77
2022-11-12T05:09:43.222Z,7.60
2022-11-12T05:12:28.331Z,9.13
2022-11-12T05:15:13.215Z,7.55
2022-11-12T05:17:58.454Z,9.98
2022-11-12T05:20:43.654Z,10.80
2022-11-12T05:23:28.587Z,10.02
2022-11-12T05:26:13.376Z,8.23
2022-11-12T05:28:58.927Z,11.68
2022-11-12T05:31:44.981Z,8.07
2022-11-12T05:34:30.215Z,9.50
2022-11-12T05:37:15.899Z,12.23
2022-11-12T05:40:00.692Z,9.38
2022-11-12T05:42:45.663Z,9.10
2022-11-12T05:45:30.851Z,8.88
2022-11-12T05:48:18.967Z,10.88
2022-11-12T05:51:15.455Z,8.90
2022-11-12T05:54:01.170Z,8.73
2022-11-12T05:56:46.898Z,10.52
2022-11-12T05:59:31.787Z,11.80
2022-11-12T06:02:17.084Z,8.63
2022-11-12T06:05:01.944Z,9.07
2022-11-12T06:10:47.643Z,9.73
2022-11-12T06:13:32.748Z,9.35
2022-11-12T06:16:17.691Z,9.65
2022-11-12T06:19:02.746Z,9.27
2022-11-12T06:21:48.016Z,9.55
2022-11-12T06:24:35.289Z,9.20
2022-11-12T06:27:20.626Z,9.93
2022-11-12T06:30:07.111Z,13.07
2022-11-12T06:32:53.095Z,10.60
2022-11-12T06:35:42.616Z,12.07
2022-11-12T06:38:32.013Z,11.65
2022-11-12T06:41:17.608Z,11.27
2022-11-12T06:44:04.742Z,10.38
2022-11-12T06:46:49.792Z,10.07
2022-11-12T06:49:34.703Z,11.13
2022-11-12T06:52:19.764Z,11.27
2022-11-12T06:55:05.226Z,9.75
2022-11-12T06:57:53.780Z,10.18
2022-11-12T07:00:38.795Z,11.93
2022-11-12T07:03:24.000Z,11.55
2022-11-12T07:06:12.039Z,11.77
2022-11-12T07:08:57.085Z,9.05
2022-11-12T07:11:42.555Z,11.52
2022-11-12T07:14:27.590Z,10.68
2022-11-12T07:17:12.990Z,11.38
2022-11-12T07:20:03.247Z,11.60
2022-11-12T07:22:49.205Z,11.32
2022-11-12T07:25:34.353Z,10.73
2022-11-12T07:28:19.342Z,13.52
2022-11-12T07:31:07.304Z,9.63
2022-11-12T07:33:52.702Z,10.30
2022-11-12T07:36:37.690Z,10.50
2022-11-12T07:39:22.907Z,12.23
2022-11-12T07:42:07.875Z,8.95
2022-11-12T07:44:53.216Z,9.32
2022-11-12T07:47:38.539Z,11.10
2022-11-12T07:50:23.397Z,11.20
2022-11-12T07:53:08.823Z,9.07
2022-11-12T07:55:57.024Z,9.07
2022-11-12T07:58:42.466Z,9.75
2022-11-12T08:01:36.799Z,9.63
2022-11-12T08:04:21.752Z,11.98
2022-11-12T08:07:06.986Z,9.02
2022-11-12T08:09:51.923Z,9.15
2022-11-12T08:12:36.799Z,10.77
2022-11-12T08:15:21.634Z,12.02
2022-11-12T08:18:06.933Z,9.98
2022-11-12T08:20:52.111Z,9.52
2022-11-12T08:23:37.641Z,9.50
2022-11-12T08:26:22.716Z,11.23
2022-11-12T08:29:08.925Z,10.90
2022-11-12T08:31:54.291Z,15.43
2022-11-12T08:34:41.318Z,10.82
2022-11-12T08:37:26.842Z,9.38
2022-11-12T08:40:12.854Z,12.18
2022-11-12T08:43:09.243Z,9.02
2022-11-12T08:45:54.535Z,11.70
2022-11-12T08:48:40.397Z,12.13
2022-11-12T08:51:25.417Z,11.50
2022-11-12T08:54:10.827Z,11.88
2022-11-12T08:56:55.976Z,13.20
2022-11-12T08:59:40.921Z,13.30
2022-11-12T09:02:26.221Z,11.57
2022-11-12T09:05:11.495Z,11.70
2022-11-12T09:08:02.018Z,10.95
2022-11-12T09:10:47.729Z,12.50
2022-11-12T09:13:33.252Z,11.50
2022-11-12T09:16:18.247Z,12.13
2022-11-12T09:19:03.573Z,10.38
2022-11-12T09:21:48.675Z,10.45
2022-11-12T09:24:33.604Z,8.73
2022-11-12T09:27:18.493Z,9.70
2022-11-12T09:30:04.711Z,10.38
2022-11-12T09:32:49.784Z,9.98
2022-11-12T09:35:35.258Z,10.75
2022-11-12T09:38:22.226Z,9.57
2022-11-12T09:41:17.734Z,11.45
2022-11-12T09:44:08.755Z,9.73
2022-11-12T09:46:53.847Z,10.70
2022-11-12T09:49:55.282Z,8.98
2022-11-12T09:52:43.702Z,10.90
2022-11-12T09:55:34.846Z,10.50
2022-11-12T09:58:20.099Z,9.18
2022-11-12T10:01:17.933Z,10.70
2022-11-12T10:04:08.730Z,9.80
2022-11-12T10:07:12.479Z,12.18
2022-11-12T10:10:09.234Z,10.10
2022-11-12T10:13:33.202Z,9.55
2022-11-12T10:16:39.701Z,8.38
2022-11-12T10:19:36.985Z,9.98
2022-11-12T10:22:58.537Z,8.95
2022-11-12T10:25:47.544Z,8.50
2022-11-12T10:28:46.280Z,9.02
2022-11-12T10:31:31.542Z,10.07
2022-11-12T10:34:19.157Z,12.00
2022-11-12T10:37:14.968Z,10.13
2022-11-12T10:40:00.475Z,11.05
2022-11-12T10:42:56.338Z,8.80
2022-11-12T10:45:41.521Z,10.73
2022-11-12T10:48:29.696Z,9.50
2022-11-12T10:51:36.089Z,9.60
2022-11-12T10:54:29.516Z,9.07
2022-11-12T10:57:23.936Z,10.55
2022-11-12T11:00:19.022Z,10.23
2022-11-12T11:03:17.193Z,9.95
2022-11-12T11:06:19.730Z,9.32
2022-11-12T11:09:13.812Z,7.72
2022-11-12T11:11:59.120Z,10.23
2022-11-12T11:14:44.568Z,9.32
2022-11-12T11:17:30.082Z,9.75
2022-11-12T11:20:17.909Z,10.20
2022-11-12T11:23:14.713Z,11.10
2022-11-12T11:26:16.723Z,9.07
2022-11-12T11:29:20.762Z,9.50
2022-11-12T11:32:37.090Z,9.10
2022-11-12T11:35:48.171Z,7.65
2022-11-12T11:38:42.123Z,10.55
2022-11-12T11:42:10.602Z,9.30
2022-11-12T11:45:18.518Z,8.30
2022-11-12T11:48:21.276Z,7.85
2022-11-12T11:51:09.056Z,9.25
2022-11-12T11:54:12.148Z,10.15
2022-11-12T11:57:00.255Z,9.35
2022-11-12T12:00:02.551Z,7.63
2022-11-12T12:03:08.730Z,7.57
2022-11-12T12:06:10.664Z,9.38
2022-11-12T12:09:27.849Z,12.40
2022-11-12T12:12:23.755Z,9.95
2022-11-12T12:15:12.008Z,8.43
2022-11-12T12:18:12.946Z,8.52
2022-11-12T12:21:18.293Z,9.57
2022-11-12T12:24:17.378Z,11.52
2022-11-12T12:27:14.490Z,12.82
2022-11-12T12:30:20.843Z,9.85
2022-11-12T12:33:27.024Z,10.43
2022-11-12T12:36:17.004Z,9.00
2022-11-12T12:39:17.002Z,11.93
2022-11-12T12:42:09.664Z,10.88
2022-11-12T12:45:07.948Z,10.73
2022-11-12T12:47:55.171Z,10.45
2022-11-12T12:50:42.615Z,11.00
2022-11-12T12:53:27.913Z,9.55
2022-11-12T12:56:12.685Z,10.23
2022-11-12T12:59:03.442Z,13.20
2022-11-12T13:02:01.146Z,9.38
2022-11-12T13:04:50.652Z,9.70
2022-11-12T13:07:43.331Z,10.90
2022-11-12T13:10:41.336Z,8.35
2022-11-12T13:13:32.328Z,8.50
2022-11-12T13:16:55.735Z,8.82
2022-11-12T13:19:53.218Z,8.90
2022-11-12T13:22:38.047Z,8.65
2022-11-12T13:25:31.637Z,11.98
2022-11-12T13:28:16.881Z,7.73
2022-11-12T13:31:04.142Z,7.80
2022-11-12T13:33:49.507Z,6.93
2022-11-12T13:36:34.561Z,9.35
2022-11-12T13:39:20.592Z,6.97
2022-11-12T13:42:36.923Z,8.65
2022-11-12T13:45:25.141Z,9.73
2022-11-12T13:48:16.131Z,9.00
2022-11-12T13:51:24.270Z,11.85
2022-11-12T13:54:29.008Z,6.60
2022-11-12T13:57:14.490Z,9.77
2022-11-12T14:00:17.951Z,8.27
2022-11-12T14:03:07.964Z,8.07
2022-11-12T14:05:54.033Z,8.73
2022-11-12T14:08:51.414Z,9.75
2022-11-12T14:11:39.324Z,13.38
2022-11-12T14:14:53.268Z,12.20
2022-11-12T14:18:11.144Z,10.15
2022-11-12T14:20:56.503Z,8.40
2022-11-12T14:23:45.677Z,11.43
2022-11-12T14:26:41.837Z,11.30
2022-11-12T14:29:32.937Z,11.27
2022-11-12T14:32:20.119Z,9.13
2022-11-12T14:35:25.398Z,14.10
2022-11-12T14:41:03.790Z,10.90
2022-11-12T14:44:11.101Z,11.30
2022-11-12T14:46:58.890Z,11.82
2022-11-12T14:49:47.909Z,12.23
2022-11-12T14:52:40.664Z,12.50
2022-11-12T14:55:30.108Z,10.80
2022-11-12T14:58:16.332Z,11.20
2022-11-12T15:02:08.868Z,11.60
2022-11-12T15:04:37.737Z,9.82
2022-11-12T15:07:28.498Z,11.13
2022-11-12T15:10:39.751Z,11.98
2022-11-12T15:13:27.354Z,10.95
2022-11-12T15:16:23.168Z,10.05
2022-11-12T15:19:15.401Z,10.18
2022-11-12T15:22:02.466Z,11.18
2022-11-12T15:24:49.584Z,12.18
2022-11-12T15:27:37.764Z,11.43
2022-11-12T15:30:31.779Z,13.93
2022-11-12T15:33:22.740Z,15.90
2022-11-12T15:36:19.435Z,16.98
2022-11-12T15:39:13.162Z,17.73
2022-11-12T15:42:00.242Z,16.35
2022-11-12T15:44:46.313Z,16.10
2022-11-12T15:47:31.846Z,18.02
2022-11-12T15:50:19.759Z,15.98
2022-11-12T15:53:05.780Z,14.35
2022-11-12T15:55:52.090Z,15.75
2022-11-12T15:58:37.882Z,15.88
2022-11-12T16:01:23.542Z,14.52
2022-11-12T16:04:11.628Z,15.20
2022-11-12T16:06:56.527Z,16.40
2022-11-12T16:09:41.790Z,14.50
2022-11-12T16:12:27.642Z,14.93
2022-11-12T16:15:19.094Z,15.68
2022-11-12T16:18:04.531Z,14.48
2022-11-12T16:20:50.157Z,15.20
2022-11-12T16:23:37.324Z,18.52
2022-11-12T16:26:30.736Z,15.07
2022-11-12T16:29:16.529Z,17.65
2022-11-12T16:32:02.880Z,20.38
2022-11-12T16:34:48.132Z,19.20
2022-11-12T16:37:33.050Z,21.63
2022-11-12T16:40:29.243Z,23.63
2022-11-12T16:43:14.020Z,21.58
2022-11-12T16:45:59.739Z,22.67
2022-11-12T16:48:44.990Z,22.20
2022-11-12T16:51:30.290Z,26.08
2022-11-12T16:54:15.960Z,26.70
2022-11-12T16:57:01.182Z,27.58
2022-11-12T16:59:46.458Z,29.83
2022-11-12T17:02:31.721Z,26.88
2022-11-12T17:05:22.468Z,27.52
2022-11-12T17:08:10.637Z,29.38
2022-11-12T17:10:57.347Z,26.38
2022-11-12T17:13:43.615Z,26.20
2022-11-12T17:16:29.817Z,27.40
2022-11-12T17:19:18.452Z,29.00
2022-11-12T17:22:03.381Z,25.65
2022-11-12T17:24:48.747Z,24.42
2022-11-12T17:27:34.011Z,32.10
2022-11-12T17:30:19.335Z,24.42
2022-11-12T17:33:04.651Z,23.20
2022-11-12T17:35:49.882Z,28.15
2022-11-12T17:38:35.258Z,25.92
2022-11-12T17:41:20.456Z,25.92
2022-11-12T17:44:06.252Z,24.95
2022-11-12T17:46:51.526Z,25.20
2022-11-12T17:49:36.737Z,27.70
2022-11-12T17:52:22.006Z,31.52
2022-11-12T17:55:07.282Z,28.83
2022-11-12T17:57:52.302Z,26.25
2022-11-12T18:00:38.568Z,26.70
2022-11-12T18:03:24.089Z,28.30
2022-11-12T18:06:21.418Z,28.40
2022-11-12T18:09:11.714Z,28.98
2022-11-12T18:11:56.809Z,23.00
2022-11-12T18:14:42.003Z,26.55
2022-11-12T18:17:27.224Z,26.40
2022-11-12T18:20:12.718Z,25.60
2022-11-12T18:22:58.093Z,27.33
2022-11-12T18:25:43.120Z,29.63
2022-11-12T18:28:29.245Z,26.08
2022-11-12T18:31:14.307Z,27.98
2022-11-12T18:33:59.612Z,25.67
2022-11-12T18:36:44.706Z,26.98
2022-11-12T18:39:30.833Z,21.85
2022-11-12T18:42:15.736Z,24.83
2022-11-12T18:45:00.944Z,24.38
2022-11-12T18:47:45.748Z,24.08
2022-11-12T18:50:30.637Z,23.20
2022-11-12T18:53:15.860Z,22.70
2022-11-12T18:56:07.682Z,20.92
2022-11-12T18:58:52.963Z,21.63
2022-11-12T19:01:38.404Z,19.58
2022-11-12T19:04:23.708Z,24.00
2022-11-12T19:07:08.704Z,23.63
2022-11-12T19:09:53.567Z,20.95
2022-11-12T19:12:38.611Z,22.13
2022-11-12T19:15:26.753Z,24.30
2022-11-12T19:18:12.221Z,23.55
2022-11-12T19:21:05.855Z,24.85
2022-11-12T19:23:54.568Z,25.50
2022-11-12T19:26:39.732Z,30.00
2022-11-12T19:29:24.812Z,27.75
2022-11-12T19:32:10.092Z,28.65
2022-11-12T19:34:55.229Z,27.95
2022-11-12T19:37:40.145Z,26.13
2022-11-12T19:40:25.228Z,24.85
2022-11-12T19:43:10.445Z,26.23
2022-11-12T19:45:55.687Z,24.45
2022-11-12T19:48:40.630Z,27.70
2022-11-12T19:51:25.939Z,20.80
2022-11-12T19:54:11.389Z,23.08
2022-11-12T19:56:56.451Z,21.10
2022-11-12T19:59:41.725Z,23.00
2022-11-12T20:02:26.792Z,21.73
2022-11-12T20:05:12.705Z,19.65
2022-11-12T20:07:57.988Z,17.92
2022-11-12T20:10:42.862Z,17.33
2022-11-12T20:13:28.331Z,19.02
2022-11-12T20:16:22.279Z,18.38
2022-11-12T20:19:09.658Z,17.85
2022-11-12T20:21:54.716Z,19.80
2022-11-12T20:24:39.666Z,18.15
2022-11-12T20:27:25.421Z,16.95
2022-11-12T20:30:11.125Z,18.60
2022-11-12T20:32:55.978Z,17.48
2022-11-12T20:35:41.327Z,17.75
2022-11-12T20:38:26.802Z,22.00
2022-11-12T20:41:15.004Z,18.05
2022-11-12T20:44:00.549Z,17.63
2022-11-12T20:46:46.155Z,18.10
2022-11-12T20:49:31.316Z,17.20
2022-11-12T20:52:16.576Z,18.23
2022-11-12T20:55:01.437Z,15.18
2022-11-12T20:57:46.781Z,16.73
2022-11-12T21:00:32.209Z,16.58
2022-11-12T21:03:17.268Z,16.95
2022-11-12T21:06:04.460Z,17.33
2022-11-12T21:08:50.062Z,18.67
2022-11-12T21:11:35.318Z,21.25
2022-11-12T21:14:20.445Z,18.98
2022-11-12T21:17:05.328Z,23.77
2022-11-12T21:19:50.288Z,21.83
2022-11-12T21:22:35.239Z,21.80
2022-11-12T21:25:20.340Z,18.40
2022-11-12T21:28:05.861Z,23.27
2022-11-12T21:30:52.597Z,19.33
2022-11-12T21:33:37.746Z,20.60
2022-11-12T21:36:23.379Z,17.05
2022-11-12T21:39:10.065Z,18.73
2022-11-12T21:41:55.003Z,17.92
2022-11-12T21:44:40.195Z,17.83
2022-11-12T21:47:25.276Z,15.95
2022-11-12T21:50:10.787Z,19.45
2022-11-12T21:52:56.335Z,18.10
2022-11-12T21:55:41.169Z,18.15
2022-11-12T21:58:28.745Z,21.02
2022-11-12T22:01:27.642Z,17.88
2022-11-12T22:04:17.929Z,17.80
2022-11-12T22:07:04.405Z,19.17
2022-11-12T22:09:53.804Z,18.05
2022-11-12T22:12:58.559Z,21.35
2022-11-12T22:15:46.606Z,18.98
2022-11-12T22:18:34.132Z,19.83
2022-11-12T22:21:24.987Z,21.15
2022-11-12T22:24:11.023Z,19.48
2022-11-12T22:26:56.748Z,21.08
2022-11-12T22:29:42.955Z,20.90
2022-11-12T22:32:28.100Z,21.95
2022-11-12T22:35:13.363Z,22.05
2022-11-12T22:37:58.612Z,21.63
2022-11-12T22:40:43.663Z,22.08
2022-11-12T22:43:28.929Z,22.65
2022-11-12T22:46:17.011Z,22.80
2022-11-12T22:49:03.546Z,22.08
2022-11-12T22:51:48.643Z,21.90
2022-11-12T22:54:33.764Z,23.42
2022-11-12T22:57:18.768Z,24.00
2022-11-12T23:00:09.473Z,23.65
2022-11-12T23:02:54.707Z,24.67
2022-11-12T23:05:42.402Z,22.58
2022-11-12T23:08:27.969Z,27.77
2022-11-12T23:11:16.675Z,25.00
2022-11-12T23:14:01.529Z,26.50
2022-11-12T23:16:46.414Z,25.65
2022-11-12T23:19:31.347Z,26.67
2022-11-12T23:22:16.709Z,29.60
2022-11-12T23:25:01.856Z,30.55
2022-11-12T23:27:46.749Z,27.50
2022-11-12T23:30:32.062Z,28.25
2022-11-12T23:33:17.247Z,25.55
2022-11-12T23:36:12.273Z,29.13
2022-11-12T23:38:58.476Z,28.55
2022-11-12T23:41:43.576Z,30.88
2022-11-12T23:44:28.523Z,25.92
2022-11-12T23:47:13.894Z,24.55
2022-11-12T23:49:59.072Z,25.70
2022-11-12T23:52:44.427Z,25.95
2022-11-12T23:55:29.625Z,24.15
2022-11-12T23:58:15.423Z,23.38
